Kyra Zafira — D5BN9 — position and weather

sailwx.info

Track history (hours):
 
Tides and Currents Weather Stations Pressure Air Temp Water Temp Dewpoint Dewpoint Depression Visibility Wind Speed Wind Dir Waves Ship Positions

Kyra Zafira

Last reported at 2017-Oct-17 20:30 UTC. Time now 2017-Oct-17 20:37 UTC.
Position N 44°34' E 037°57'.

Length 229 m; draft 7 m.

Type: Ship. MMSI: 636015567.

Date/timePositionNaut miles runAvg speedWind from/ knotsBaromVisibWave heightAir tempDewpointWater temp
2017-Oct-17 20:30N 44°34' E 037°57'0 0.1
2017-Oct-17 20:00N 44°34' E 037°57'0 0.1
2017-Oct-17 19:30N 44°34' E 037°57'0 0.1
2017-Oct-17 19:00N 44°34' E 037°57'0 0.0
2017-Oct-17 18:30N 44°34' E 037°57'0 0.0
2017-Oct-17 18:00N 44°34' E 037°57'0 0.1
2017-Oct-17 17:30N 44°34' E 037°57'0 0.1
2017-Oct-17 17:00N 44°34' E 037°57'0 0.0
2017-Oct-17 16:30N 44°34' E 037°57'0 0.0
2017-Oct-17 16:00N 44°34' E 037°57'0 0.0
2017-Oct-17 15:30N 44°34' E 037°57'0 0.0
2017-Oct-17 15:00N 44°34' E 037°57'0 0.0
2017-Oct-17 14:30N 44°34' E 037°57'0 0.0
2017-Oct-17 14:00N 44°34' E 037°57'0 0.0
2017-Oct-17 13:30N 44°34' E 037°57'0 0.1
2017-Oct-17 13:00N 44°34' E 037°57'0 0.0
2017-Oct-17 12:30N 44°34' E 037°57'0 0.0
2017-Oct-17 12:00N 44°34' E 037°57'0 0.1
2017-Oct-17 11:30N 44°34' E 037°57'0 0.0
2017-Oct-17 11:00N 44°34' E 037°57'0 0.0
2017-Oct-17 10:30N 44°34' E 037°57'0 0.0
2017-Oct-17 10:00N 44°34' E 037°57'0 0.0
2017-Oct-17 09:30N 44°34' E 037°57'0 0.1
2017-Oct-17 09:00N 44°34' E 037°57'0 0.0
2017-Oct-17 08:30N 44°34' E 037°57'0 0.0
2017-Oct-17 08:00N 44°34' E 037°57'0 0.0
2017-Oct-17 07:30N 44°34' E 037°57'0 0.0
2017-Oct-17 07:00N 44°34' E 037°57'0 0.0
2017-Oct-17 06:30N 44°34' E 037°57'0 0.0
2017-Oct-17 06:00N 44°34' E 037°57'0 0.1
2017-Oct-17 05:30N 44°34' E 037°57'0 0.0
2017-Oct-17 05:00N 44°34' E 037°57'0 0.0
2017-Oct-17 04:30N 44°34' E 037°57'0 0.0
2017-Oct-17 04:00N 44°34' E 037°57'0 0.0
2017-Oct-17 03:15N 44°34' E 037°57'0 0.1
2017-Oct-17 03:00N 44°34' E 037°57'0 0.0
2017-Oct-17 02:30N 44°34' E 037°57'0 0.0
2017-Oct-17 02:00N 44°34' E 037°57'0 0.0
2017-Oct-17 01:30N 44°34' E 037°57'0 0.0
2017-Oct-17 01:00N 44°34' E 037°57'0 0.0
2017-Oct-17 00:30N 44°34' E 037°57'0 0.0
2017-Oct-17 00:00N 44°34' E 037°57'0 0.0
2017-Oct-16 23:30N 44°34' E 037°57'0 0.1
2017-Oct-16 23:00N 44°34' E 037°57'0 0.0
2017-Oct-16 22:30N 44°34' E 037°57'0 0.1
2017-Oct-16 22:00N 44°34' E 037°57'0 0.1
2017-Oct-16 21:30N 44°34' E 037°57'0 0.0
2017-Oct-16 21:00N 44°34' E 037°57'0 0.1
2017-Oct-16 20:30N 44°34' E 037°57'0 0.4
2017-Oct-16 20:00N 44°34' E 037°57'1 2.0
2017-Oct-16 19:30N 44°33' E 037°57'4 8.3
2017-Oct-16 19:00N 44°31' E 037°52'4 4.4
2017-Oct-16 18:07N 44°28' E 037°48'0 0.9
2017-Oct-16 17:58N 44°28' E 037°47'4 7.8
2017-Oct-16 17:30N 44°29' E 037°52'3 5.7
2017-Oct-16 16:59N 44°30' E 037°56'1 1.8
2017-Oct-16 16:29N 44°29' E 037°55'1 1.8
2017-Oct-16 15:59N 44°29' E 037°54'1 1.7
2017-Oct-16 15:29N 44°28' E 037°53'1 1.5
2017-Oct-16 14:59N 44°28' E 037°52'3 3.5
2017-Oct-16 14:00N 44°25' E 037°49'1 1.2
2017-Oct-16 13:29N 44°26' E 037°50'1 1.8
2017-Oct-16 12:59N 44°27' E 037°50'1 1.8
2017-Oct-16 12:30N 44°27' E 037°51'2 4.6
2017-Oct-16 12:01N 44°28' E 037°54'2 3.9
2017-Oct-16 11:28N 44°28' E 037°57'1 2.2
2017-Oct-16 10:58N 44°28' E 037°56'1 1.9
2017-Oct-16 10:28N 44°28' E 037°54'1 1.8
2017-Oct-16 09:58N 44°28' E 037°53'1 2.0
2017-Oct-16 09:30N 44°27' E 037°52'4 7.4
2017-Oct-16 09:00N 44°25' E 037°47'1 2.7
2017-Oct-16 08:29N 44°27' E 037°48'2 3.5
2017-Oct-16 08:01N 44°28' E 037°50'2 4.6
2017-Oct-16 07:30N 44°28' E 037°54'1 2.0
2017-Oct-16 07:00N 44°28' E 037°52'1 1.8
2017-Oct-16 06:30N 44°27' E 037°51'1 1.6
2017-Oct-16 06:00N 44°27' E 037°51'1122.0
2017-Oct-16 05:29N 44°36' E 038°01'1122.2
2017-Oct-16 05:00N 44°25' E 038°01'1 1.9
2017-Oct-16 04:30N 44°25' E 038°00'1 2.0
2017-Oct-16 04:00N 44°24' E 037°59'1222.1
2017-Oct-16 03:29N 44°36' E 038°01'1224.9
2017-Oct-16 03:00N 44°24' E 037°57'1 1.9
2017-Oct-16 02:30N 44°25' E 037°55'1 1.9
2017-Oct-16 02:00N 44°25' E 037°54'1 2.4
2017-Oct-16 01:30N 44°25' E 037°52'3 6.5
2017-Oct-16 01:00N 44°24' E 037°48'1 2.9
2017-Oct-16 00:30N 44°25' E 037°47'1 3.0
2017-Oct-16 00:00N 44°27' E 037°46'4 7.6
2017-Oct-15 23:30N 44°30' E 037°50'4 8.3
2017-Oct-15 23:00N 44°33' E 037°54'3 6.9
2017-Oct-15 22:31N 44°34' E 037°59'0 0.8
2017-Oct-15 21:59N 44°34' E 037°58'0 0.5
2017-Oct-15 21:29N 44°34' E 037°58'0 0.1
2017-Oct-15 20:59N 44°34' E 037°58'0 0.0
2017-Oct-15 20:29N 44°34' E 037°58'0 0.1
2017-Oct-15 19:59N 44°34' E 037°58'0 0.1
2017-Oct-15 19:29N 44°34' E 037°58'0 0.1
2017-Oct-15 18:59N 44°34' E 037°58'0 0.0
2017-Oct-15 18:29N 44°34' E 037°58'0 0.0
2017-Oct-15 17:59N 44°34' E 037°58'0 0.1
2017-Oct-15 17:29N 44°34' E 037°57'0 0.0
2017-Oct-15 16:59N 44°34' E 037°57'0 0.1
2017-Oct-15 16:29N 44°34' E 037°57'0 0.0
2017-Oct-15 15:59N 44°34' E 037°57'0 0.1
2017-Oct-15 15:29N 44°34' E 037°58'0 0.1
2017-Oct-15 14:59N 44°34' E 037°57'0 0.0
2017-Oct-15 13:59N 44°34' E 037°57'0 0.1
2017-Oct-15 13:29N 44°34' E 037°58'0 0.1
2017-Oct-15 12:59N 44°34' E 037°57'0 0.1
2017-Oct-15 12:29N 44°34' E 037°58'0 0.0
2017-Oct-15 11:59N 44°34' E 037°58'0 0.0
2017-Oct-15 11:29N 44°34' E 037°58'0 0.0
2017-Oct-15 10:59N 44°34' E 037°58'0 0.0
2017-Oct-15 10:29N 44°34' E 037°58'0 0.0
2017-Oct-15 09:59N 44°34' E 037°58'0 0.0
2017-Oct-15 09:29N 44°34' E 037°58'0 0.1
2017-Oct-15 08:59N 44°34' E 037°58'0 0.2
2017-Oct-15 08:29N 44°34' E 037°58'0 0.0
2017-Oct-15 07:59N 44°34' E 037°58'0 0.0
2017-Oct-15 07:26N 44°34' E 037°58'0 0.0
2017-Oct-15 06:59N 44°34' E 037°58'0 0.0
2017-Oct-15 06:29N 44°34' E 037°57'0 0.0
2017-Oct-15 05:59N 44°34' E 037°58'0 0.0
2017-Oct-15 05:29N 44°34' E 037°58'0 0.0
2017-Oct-15 04:59N 44°34' E 037°58'0 0.0
2017-Oct-15 04:29N 44°34' E 037°58'0 0.0
2017-Oct-15 03:59N 44°34' E 037°58'0 0.0
2017-Oct-15 03:29N 44°34' E 037°58'0 0.0
2017-Oct-15 02:59N 44°34' E 037°58'0 0.0
2017-Oct-15 02:29N 44°34' E 037°58'0 0.0
2017-Oct-15 01:59N 44°34' E 037°58'0 0.0
2017-Oct-15 01:29N 44°34' E 037°58'0 0.1
2017-Oct-15 00:59N 44°34' E 037°58'0 0.0
2017-Oct-15 00:29N 44°34' E 037°58'0 0.1
2017-Oct-14 23:59N 44°34' E 037°58'0 0.1
2017-Oct-14 23:29N 44°34' E 037°58'0 0.0
2017-Oct-14 22:59N 44°34' E 037°58'0 0.0
2017-Oct-14 22:29N 44°34' E 037°58'0 0.0
2017-Oct-14 21:59N 44°34' E 037°58'0 0.0
2017-Oct-14 21:29N 44°34' E 037°58'0 0.1
2017-Oct-14 20:59N 44°34' E 037°58'0 0.0
2017-Oct-14 20:29N 44°34' E 037°58'0 0.0
2017-Oct-14 19:59N 44°34' E 037°58'0 0.0
2017-Oct-14 19:29N 44°34' E 037°58'0 0.1
2017-Oct-14 18:59N 44°34' E 037°58'0 0.0
2017-Oct-14 18:29N 44°34' E 037°58'0 0.1
2017-Oct-14 17:59N 44°34' E 037°58'0 0.0
2017-Oct-14 17:29N 44°34' E 037°58'0 0.0
2017-Oct-14 16:59N 44°34' E 037°58'0 0.0
2017-Oct-14 16:29N 44°34' E 037°58'0 0.0
2017-Oct-14 15:59N 44°34' E 037°58'0 0.0
2017-Oct-14 15:29N 44°34' E 037°58'0 0.0
2017-Oct-14 14:59N 44°34' E 037°58'0 0.1
2017-Oct-14 14:29N 44°34' E 037°58'0 0.0
2017-Oct-14 13:59N 44°34' E 037°58'0 0.0
2017-Oct-14 13:29N 44°34' E 037°58'0 0.0
2017-Oct-14 12:59N 44°34' E 037°58'0 0.1
2017-Oct-14 12:29N 44°34' E 037°58'0 0.0
2017-Oct-14 11:59N 44°34' E 037°58'0 0.0
2017-Oct-14 11:29N 44°34' E 037°58'0 0.0
2017-Oct-14 10:59N 44°34' E 037°58'0 0.0
2017-Oct-14 10:29N 44°34' E 037°58'0 0.0
2017-Oct-14 09:59N 44°34' E 037°58'0 0.1
2017-Oct-14 09:29N 44°34' E 037°58'0 0.0
2017-Oct-14 08:59N 44°34' E 037°58'0 0.0
2017-Oct-14 08:29N 44°34' E 037°58'0 0.0
2017-Oct-14 07:59N 44°34' E 037°58'0 0.1
2017-Oct-14 07:29N 44°34' E 037°58'0 0.0
2017-Oct-14 06:59N 44°34' E 037°58'0 0.0
2017-Oct-14 06:29N 44°34' E 037°58'0 0.1
2017-Oct-14 05:59N 44°34' E 037°58'0 0.1
2017-Oct-14 05:29N 44°34' E 037°58'0 0.1
2017-Oct-14 04:59N 44°34' E 037°58'0 0.0
2017-Oct-14 04:26N 44°34' E 037°58'0 0.0
2017-Oct-14 03:59N 44°34' E 037°58'0 0.1
2017-Oct-14 03:29N 44°34' E 037°58'0 0.0
2017-Oct-14 02:59N 44°34' E 037°58'0 0.0
2017-Oct-14 02:29N 44°34' E 037°58'0 0.1
2017-Oct-14 01:59N 44°34' E 037°58'0 0.1
2017-Oct-14 01:29N 44°34' E 037°58'0 0.0
2017-Oct-14 00:59N 44°34' E 037°58'0 0.0
2017-Oct-14 00:29N 44°34' E 037°58'0 0.0
2017-Oct-13 23:59N 44°34' E 037°58'0 0.0
2017-Oct-13 23:29N 44°34' E 037°58'0 0.0
2017-Oct-13 22:59N 44°34' E 037°58'0 0.0
2017-Oct-13 22:29N 44°34' E 037°58'0 0.0
2017-Oct-13 21:59N 44°34' E 037°58'0 0.0
2017-Oct-13 21:29N 44°34' E 037°58'0 0.0
2017-Oct-13 20:59N 44°34' E 037°58'0 0.0
2017-Oct-13 20:29N 44°34' E 037°58'0 0.0
2017-Oct-13 19:59N 44°34' E 037°58'0 0.0
2017-Oct-13 19:29N 44°34' E 037°58'0 0.0
2017-Oct-13 18:59N 44°34' E 037°58'0 0.0
2017-Oct-13 18:29N 44°34' E 037°58'0 0.0
2017-Oct-13 17:59N 44°34' E 037°58'0 0.0
2017-Oct-13 17:29N 44°34' E 037°58'0 0.0
2017-Oct-13 16:29N 44°34' E 037°58'0 0.0
2017-Oct-13 15:59N 44°34' E 037°58'0 0.0
2017-Oct-13 15:29N 44°34' E 037°58'0 0.0
2017-Oct-13 14:59N 44°34' E 037°58'0 0.0
2017-Oct-13 14:29N 44°34' E 037°58'0 0.0
2017-Oct-13 13:59N 44°34' E 037°57'0 0.1
2017-Oct-13 13:29N 44°34' E 037°57'0 0.0
2017-Oct-13 12:59N 44°34' E 037°57'0 0.0
2017-Oct-13 12:29N 44°34' E 037°58'0 0.0
2017-Oct-13 11:59N 44°34' E 037°57'0 0.0
2017-Oct-13 11:29N 44°34' E 037°57'0 0.0
2017-Oct-13 10:59N 44°34' E 037°57'0 0.0
2017-Oct-13 10:29N 44°34' E 037°57'0 0.0
2017-Oct-13 09:59N 44°34' E 037°57'0 0.1
2017-Oct-13 09:29N 44°34' E 037°57'0 0.0
2017-Oct-13 08:59N 44°34' E 037°57'0 0.0
2017-Oct-13 08:29N 44°34' E 037°57'0 0.0
2017-Oct-13 07:59N 44°34' E 037°57'0 0.0
2017-Oct-13 07:29N 44°34' E 037°57'0 0.0
2017-Oct-13 06:59N 44°34' E 037°57'0 0.0
2017-Oct-13 06:29N 44°34' E 037°57'0 0.0
2017-Oct-13 05:59N 44°34' E 037°57'0 0.0
2017-Oct-13 05:29N 44°34' E 037°57'0 0.1
2017-Oct-13 04:59N 44°34' E 037°57'0 0.0
2017-Oct-13 04:29N 44°34' E 037°57'0 0.0
2017-Oct-13 03:59N 44°34' E 037°57'0 0.2
2017-Oct-13 03:29N 44°34' E 037°57'0 0.2
2017-Oct-13 02:59N 44°34' E 037°57'0 0.0
2017-Oct-13 02:26N 44°34' E 037°57'0 0.1
2017-Oct-13 01:59N 44°34' E 037°57'0 0.1
2017-Oct-13 01:29N 44°34' E 037°57'0 0.0
2017-Oct-13 00:59N 44°34' E 037°57'0 0.0
2017-Oct-13 00:29N 44°34' E 037°57'0 0.1
2017-Oct-12 23:59N 44°34' E 037°57'0 0.0
2017-Oct-12 23:29N 44°34' E 037°57'0 0.1
2017-Oct-12 22:59N 44°34' E 037°57'0 0.0
2017-Oct-12 22:29N 44°34' E 037°57'0 0.0
2017-Oct-12 21:59N 44°34' E 037°57'0 0.0
2017-Oct-12 21:29N 44°34' E 037°57'0 0.0
2017-Oct-12 20:59N 44°34' E 037°57'0 0.0
2017-Oct-12 20:29N 44°34' E 037°57'0 0.1
2017-Oct-12 19:59N 44°34' E 037°58'0 0.0
2017-Oct-12 19:29N 44°34' E 037°57'0 0.1
2017-Oct-12 18:59N 44°34' E 037°58'0 0.0
2017-Oct-12 18:29N 44°34' E 037°58'0 0.1
2017-Oct-12 17:59N 44°34' E 037°58'0 0.0
2017-Oct-12 17:29N 44°34' E 037°58'0 0.0
2017-Oct-12 16:59N 44°34' E 037°58'0 0.0
2017-Oct-12 16:26N 44°34' E 037°58'0 0.0
2017-Oct-12 15:59N 44°34' E 037°58'0 0.0
2017-Oct-12 15:29N 44°34' E 037°58'0 0.0
2017-Oct-12 14:59N 44°34' E 037°58'0 0.0
2017-Oct-12 14:29N 44°34' E 037°58'0 0.1
2017-Oct-12 13:56N 44°34' E 037°58'0 0.1
2017-Oct-12 13:29N 44°34' E 037°58'0 0.0
2017-Oct-12 12:59N 44°34' E 037°58'0 0.0
2017-Oct-12 12:29N 44°34' E 037°58'0 0.0
2017-Oct-12 11:53N 44°34' E 037°58'0 0.0
2017-Oct-12 11:29N 44°34' E 037°58'0 0.0
2017-Oct-12 10:59N 44°34' E 037°58'0 0.0
2017-Oct-12 10:29N 44°34' E 037°58'0 0.0
2017-Oct-12 09:59N 44°34' E 037°58'0 0.0
2017-Oct-12 09:29N 44°34' E 037°58'0 0.0
2017-Oct-12 08:59N 44°34' E 037°58'0 0.0
2017-Oct-12 08:29N 44°34' E 037°58'0 0.0
2017-Oct-12 07:59N 44°34' E 037°58'0 0.1
2017-Oct-12 07:29N 44°34' E 037°58'0 0.1
2017-Oct-12 06:59N 44°34' E 037°58'0 0.1
2017-Oct-12 06:29N 44°34' E 037°57'0 0.1
2017-Oct-12 05:59N 44°34' E 037°58'0 0.1
2017-Oct-12 05:29N 44°34' E 037°58'0 0.0
2017-Oct-12 04:59N 44°34' E 037°58'0 0.1
2017-Oct-12 04:29N 44°34' E 037°58'0 0.2
2017-Oct-12 03:59N 44°34' E 037°57'0 0.2
2017-Oct-12 03:29N 44°34' E 037°57'0 0.1
2017-Oct-12 02:59N 44°34' E 037°57'0 0.0
2017-Oct-12 02:29N 44°34' E 037°57'0 0.0
2017-Oct-12 01:59N 44°34' E 037°57'0 0.0
2017-Oct-12 01:29N 44°34' E 037°57'0 0.0
2017-Oct-12 00:59N 44°34' E 037°57'0 0.0
2017-Oct-12 00:29N 44°34' E 037°57'0 0.0
2017-Oct-11 23:59N 44°34' E 037°57'0 0.1
2017-Oct-11 23:29N 44°34' E 037°57'0 0.0
2017-Oct-11 22:59N 44°34' E 037°57'0 0.0
2017-Oct-11 22:29N 44°34' E 037°57'0 0.0
2017-Oct-11 21:59N 44°34' E 037°57'0 0.0
2017-Oct-11 21:29N 44°34' E 037°57'0 0.0
2017-Oct-11 20:59N 44°34' E 037°57'0 0.0
2017-Oct-11 20:29N 44°34' E 037°57'0 0.0
2017-Oct-11 19:59N 44°34' E 037°57'0 0.0
2017-Oct-11 19:29N 44°34' E 037°57'0 0.0
2017-Oct-11 18:59N 44°34' E 037°57'0 0.0
2017-Oct-11 18:29N 44°34' E 037°57'0 0.1
2017-Oct-11 17:59N 44°34' E 037°58'0 0.2
2017-Oct-11 17:26N 44°34' E 037°58'0 0.3
2017-Oct-11 16:59N 44°34' E 037°58'449 9.0
2017-Oct-09 15:00N 40°60' E 028°60'4 7.4
2017-Oct-09 14:30N 40°56' E 028°58'510.7
2017-Oct-09 14:00N 40°52' E 028°54'3 4.8
2017-Oct-09 13:26N 40°49' E 028°53'0 0.9
2017-Oct-09 12:57N 40°50' E 028°52'4 8.4
2017-Oct-09 12:26N 40°50' E 028°47'230 9.7
2017-Oct-08 12:39N 37°48' E 025°45'1 9.8
2017-Oct-08 12:30N 37°47' E 025°46'5 9.6
2017-Oct-08 12:00N 37°42' E 025°48'4 8.7
2017-Oct-08 11:30N 37°38' E 025°50'4 8.2
2017-Oct-08 11:00N 37°34' E 025°52'4 7.8
2017-Oct-08 10:30N 37°31' E 025°54'4 8.2
2017-Oct-08 10:00N 37°27' E 025°55'  
Track history (hours):
 
Tides and Currents Weather Stations Pressure Air Temp Water Temp Dewpoint Dewpoint Depression Visibility Wind Speed Wind Dir Waves Ship Positions

Kyra Zafira

Last reported at 2017-Oct-17 20:30 UTC. Time now 2017-Oct-17 20:37 UTC.
Position N 44°34' E 037°57'.

Length 229 m; draft 7 m.

Type: Ship. MMSI: 636015567.

Date/timePositionNaut miles runAvg speedWind from/ knotsBaromVisibWave heightAir tempDewpointWater temp
2017-Oct-17 20:30N 44°34' E 037°57'0 0.1
2017-Oct-17 20:00N 44°34' E 037°57'0 0.1
2017-Oct-17 19:30N 44°34' E 037°57'0 0.1
2017-Oct-17 19:00N 44°34' E 037°57'0 0.0
2017-Oct-17 18:30N 44°34' E 037°57'0 0.0
2017-Oct-17 18:00N 44°34' E 037°57'0 0.1
2017-Oct-17 17:30N 44°34' E 037°57'0 0.1
2017-Oct-17 17:00N 44°34' E 037°57'0 0.0
2017-Oct-17 16:30N 44°34' E 037°57'0 0.0
2017-Oct-17 16:00N 44°34' E 037°57'0 0.0
2017-Oct-17 15:30N 44°34' E 037°57'0 0.0
2017-Oct-17 15:00N 44°34' E 037°57'0 0.0
2017-Oct-17 14:30N 44°34' E 037°57'0 0.0
2017-Oct-17 14:00N 44°34' E 037°57'0 0.0
2017-Oct-17 13:30N 44°34' E 037°57'0 0.1
2017-Oct-17 13:00N 44°34' E 037°57'0 0.0
2017-Oct-17 12:30N 44°34' E 037°57'0 0.0
2017-Oct-17 12:00N 44°34' E 037°57'0 0.1
2017-Oct-17 11:30N 44°34' E 037°57'0 0.0
2017-Oct-17 11:00N 44°34' E 037°57'0 0.0
2017-Oct-17 10:30N 44°34' E 037°57'0 0.0
2017-Oct-17 10:00N 44°34' E 037°57'0 0.0
2017-Oct-17 09:30N 44°34' E 037°57'0 0.1
2017-Oct-17 09:00N 44°34' E 037°57'0 0.0
2017-Oct-17 08:30N 44°34' E 037°57'0 0.0
2017-Oct-17 08:00N 44°34' E 037°57'0 0.0
2017-Oct-17 07:30N 44°34' E 037°57'0 0.0
2017-Oct-17 07:00N 44°34' E 037°57'0 0.0
2017-Oct-17 06:30N 44°34' E 037°57'0 0.0
2017-Oct-17 06:00N 44°34' E 037°57'0 0.1
2017-Oct-17 05:30N 44°34' E 037°57'0 0.0
2017-Oct-17 05:00N 44°34' E 037°57'0 0.0
2017-Oct-17 04:30N 44°34' E 037°57'0 0.0
2017-Oct-17 04:00N 44°34' E 037°57'0 0.0
2017-Oct-17 03:15N 44°34' E 037°57'0 0.1
2017-Oct-17 03:00N 44°34' E 037°57'0 0.0
2017-Oct-17 02:30N 44°34' E 037°57'0 0.0
2017-Oct-17 02:00N 44°34' E 037°57'0 0.0
2017-Oct-17 01:30N 44°34' E 037°57'0 0.0
2017-Oct-17 01:00N 44°34' E 037°57'0 0.0
2017-Oct-17 00:30N 44°34' E 037°57'0 0.0
2017-Oct-17 00:00N 44°34' E 037°57'0 0.0
2017-Oct-16 23:30N 44°34' E 037°57'0 0.1
2017-Oct-16 23:00N 44°34' E 037°57'0 0.0
2017-Oct-16 22:30N 44°34' E 037°57'0 0.1
2017-Oct-16 22:00N 44°34' E 037°57'0 0.1
2017-Oct-16 21:30N 44°34' E 037°57'0 0.0
2017-Oct-16 21:00N 44°34' E 037°57'0 0.1
2017-Oct-16 20:30N 44°34' E 037°57'0 0.4
2017-Oct-16 20:00N 44°34' E 037°57'1 2.0
2017-Oct-16 19:30N 44°33' E 037°57'4 8.3
2017-Oct-16 19:00N 44°31' E 037°52'4 4.4
2017-Oct-16 18:07N 44°28' E 037°48'0 0.9
2017-Oct-16 17:58N 44°28' E 037°47'4 7.8
2017-Oct-16 17:30N 44°29' E 037°52'3 5.7
2017-Oct-16 16:59N 44°30' E 037°56'1 1.8
2017-Oct-16 16:29N 44°29' E 037°55'1 1.8
2017-Oct-16 15:59N 44°29' E 037°54'1 1.7
2017-Oct-16 15:29N 44°28' E 037°53'1 1.5
2017-Oct-16 14:59N 44°28' E 037°52'3 3.5
2017-Oct-16 14:00N 44°25' E 037°49'1 1.2
2017-Oct-16 13:29N 44°26' E 037°50'1 1.8
2017-Oct-16 12:59N 44°27' E 037°50'1 1.8
2017-Oct-16 12:30N 44°27' E 037°51'2 4.6
2017-Oct-16 12:01N 44°28' E 037°54'2 3.9
2017-Oct-16 11:28N 44°28' E 037°57'1 2.2
2017-Oct-16 10:58N 44°28' E 037°56'1 1.9
2017-Oct-16 10:28N 44°28' E 037°54'1 1.8
2017-Oct-16 09:58N 44°28' E 037°53'1 2.0
2017-Oct-16 09:30N 44°27' E 037°52'4 7.4
2017-Oct-16 09:00N 44°25' E 037°47'1 2.7
2017-Oct-16 08:29N 44°27' E 037°48'2 3.5
2017-Oct-16 08:01N 44°28' E 037°50'2 4.6
2017-Oct-16 07:30N 44°28' E 037°54'1 2.0
2017-Oct-16 07:00N 44°28' E 037°52'1 1.8
2017-Oct-16 06:30N 44°27' E 037°51'1 1.6
2017-Oct-16 06:00N 44°27' E 037°51'1122.0
2017-Oct-16 05:29N 44°36' E 038°01'1122.2
2017-Oct-16 05:00N 44°25' E 038°01'1 1.9
2017-Oct-16 04:30N 44°25' E 038°00'1 2.0
2017-Oct-16 04:00N 44°24' E 037°59'1222.1
2017-Oct-16 03:29N 44°36' E 038°01'1224.9
2017-Oct-16 03:00N 44°24' E 037°57'1 1.9
2017-Oct-16 02:30N 44°25' E 037°55'1 1.9
2017-Oct-16 02:00N 44°25' E 037°54'1 2.4
2017-Oct-16 01:30N 44°25' E 037°52'3 6.5
2017-Oct-16 01:00N 44°24' E 037°48'1 2.9
2017-Oct-16 00:30N 44°25' E 037°47'1 3.0
2017-Oct-16 00:00N 44°27' E 037°46'4 7.6
2017-Oct-15 23:30N 44°30' E 037°50'4 8.3
2017-Oct-15 23:00N 44°33' E 037°54'3 6.9
2017-Oct-15 22:31N 44°34' E 037°59'0 0.8
2017-Oct-15 21:59N 44°34' E 037°58'0 0.5
2017-Oct-15 21:29N 44°34' E 037°58'0 0.1
2017-Oct-15 20:59N 44°34' E 037°58'0 0.0
2017-Oct-15 20:29N 44°34' E 037°58'0 0.1
2017-Oct-15 19:59N 44°34' E 037°58'0 0.1
2017-Oct-15 19:29N 44°34' E 037°58'0 0.1
2017-Oct-15 18:59N 44°34' E 037°58'0 0.0
2017-Oct-15 18:29N 44°34' E 037°58'0 0.0
2017-Oct-15 17:59N 44°34' E 037°58'0 0.1
2017-Oct-15 17:29N 44°34' E 037°57'0 0.0
2017-Oct-15 16:59N 44°34' E 037°57'0 0.1
2017-Oct-15 16:29N 44°34' E 037°57'0 0.0
2017-Oct-15 15:59N 44°34' E 037°57'0 0.1
2017-Oct-15 15:29N 44°34' E 037°58'0 0.1
2017-Oct-15 14:59N 44°34' E 037°57'0 0.0
2017-Oct-15 13:59N 44°34' E 037°57'0 0.1
2017-Oct-15 13:29N 44°34' E 037°58'0 0.1
2017-Oct-15 12:59N 44°34' E 037°57'0 0.1
2017-Oct-15 12:29N 44°34' E 037°58'0 0.0
2017-Oct-15 11:59N 44°34' E 037°58'0 0.0
2017-Oct-15 11:29N 44°34' E 037°58'0 0.0
2017-Oct-15 10:59N 44°34' E 037°58'0 0.0
2017-Oct-15 10:29N 44°34' E 037°58'0 0.0
2017-Oct-15 09:59N 44°34' E 037°58'0 0.0
2017-Oct-15 09:29N 44°34' E 037°58'0 0.1
2017-Oct-15 08:59N 44°34' E 037°58'0 0.2
2017-Oct-15 08:29N 44°34' E 037°58'0 0.0
2017-Oct-15 07:59N 44°34' E 037°58'0 0.0
2017-Oct-15 07:26N 44°34' E 037°58'0 0.0
2017-Oct-15 06:59N 44°34' E 037°58'0 0.0
2017-Oct-15 06:29N 44°34' E 037°57'0 0.0
2017-Oct-15 05:59N 44°34' E 037°58'0 0.0
2017-Oct-15 05:29N 44°34' E 037°58'0 0.0
2017-Oct-15 04:59N 44°34' E 037°58'0 0.0
2017-Oct-15 04:29N 44°34' E 037°58'0 0.0
2017-Oct-15 03:59N 44°34' E 037°58'0 0.0
2017-Oct-15 03:29N 44°34' E 037°58'0 0.0
2017-Oct-15 02:59N 44°34' E 037°58'0 0.0
2017-Oct-15 02:29N 44°34' E 037°58'0 0.0
2017-Oct-15 01:59N 44°34' E 037°58'0 0.0
2017-Oct-15 01:29N 44°34' E 037°58'0 0.1
2017-Oct-15 00:59N 44°34' E 037°58'0 0.0
2017-Oct-15 00:29N 44°34' E 037°58'0 0.1
2017-Oct-14 23:59N 44°34' E 037°58'0 0.1
2017-Oct-14 23:29N 44°34' E 037°58'0 0.0
2017-Oct-14 22:59N 44°34' E 037°58'0 0.0
2017-Oct-14 22:29N 44°34' E 037°58'0 0.0
2017-Oct-14 21:59N 44°34' E 037°58'0 0.0
2017-Oct-14 21:29N 44°34' E 037°58'0 0.1
2017-Oct-14 20:59N 44°34' E 037°58'0 0.0
2017-Oct-14 20:29N 44°34' E 037°58'0 0.0
2017-Oct-14 19:59N 44°34' E 037°58'0 0.0
2017-Oct-14 19:29N 44°34' E 037°58'0 0.1
2017-Oct-14 18:59N 44°34' E 037°58'0 0.0
2017-Oct-14 18:29N 44°34' E 037°58'0 0.1
2017-Oct-14 17:59N 44°34' E 037°58'0 0.0
2017-Oct-14 17:29N 44°34' E 037°58'0 0.0
2017-Oct-14 16:59N 44°34' E 037°58'0 0.0
2017-Oct-14 16:29N 44°34' E 037°58'0 0.0
2017-Oct-14 15:59N 44°34' E 037°58'0 0.0
2017-Oct-14 15:29N 44°34' E 037°58'0 0.0
2017-Oct-14 14:59N 44°34' E 037°58'0 0.1
2017-Oct-14 14:29N 44°34' E 037°58'0 0.0
2017-Oct-14 13:59N 44°34' E 037°58'0 0.0
2017-Oct-14 13:29N 44°34' E 037°58'0 0.0
2017-Oct-14 12:59N 44°34' E 037°58'0 0.1
2017-Oct-14 12:29N 44°34' E 037°58'0 0.0
2017-Oct-14 11:59N 44°34' E 037°58'0 0.0
2017-Oct-14 11:29N 44°34' E 037°58'0 0.0
2017-Oct-14 10:59N 44°34' E 037°58'0 0.0
2017-Oct-14 10:29N 44°34' E 037°58'0 0.0
2017-Oct-14 09:59N 44°34' E 037°58'0 0.1
2017-Oct-14 09:29N 44°34' E 037°58'0 0.0
2017-Oct-14 08:59N 44°34' E 037°58'0 0.0
2017-Oct-14 08:29N 44°34' E 037°58'0 0.0
2017-Oct-14 07:59N 44°34' E 037°58'0 0.1
2017-Oct-14 07:29N 44°34' E 037°58'0 0.0
2017-Oct-14 06:59N 44°34' E 037°58'0 0.0
2017-Oct-14 06:29N 44°34' E 037°58'0 0.1
2017-Oct-14 05:59N 44°34' E 037°58'0 0.1
2017-Oct-14 05:29N 44°34' E 037°58'0 0.1
2017-Oct-14 04:59N 44°34' E 037°58'0 0.0
2017-Oct-14 04:26N 44°34' E 037°58'0 0.0
2017-Oct-14 03:59N 44°34' E 037°58'0 0.1
2017-Oct-14 03:29N 44°34' E 037°58'0 0.0
2017-Oct-14 02:59N 44°34' E 037°58'0 0.0
2017-Oct-14 02:29N 44°34' E 037°58'0 0.1
2017-Oct-14 01:59N 44°34' E 037°58'0 0.1
2017-Oct-14 01:29N 44°34' E 037°58'0 0.0
2017-Oct-14 00:59N 44°34' E 037°58'0 0.0
2017-Oct-14 00:29N 44°34' E 037°58'0 0.0
2017-Oct-13 23:59N 44°34' E 037°58'0 0.0
2017-Oct-13 23:29N 44°34' E 037°58'0 0.0
2017-Oct-13 22:59N 44°34' E 037°58'0 0.0
2017-Oct-13 22:29N 44°34' E 037°58'0 0.0
2017-Oct-13 21:59N 44°34' E 037°58'0 0.0
2017-Oct-13 21:29N 44°34' E 037°58'0 0.0
2017-Oct-13 20:59N 44°34' E 037°58'0 0.0
2017-Oct-13 20:29N 44°34' E 037°58'0 0.0
2017-Oct-13 19:59N 44°34' E 037°58'0 0.0
2017-Oct-13 19:29N 44°34' E 037°58'0 0.0
2017-Oct-13 18:59N 44°34' E 037°58'0 0.0
2017-Oct-13 18:29N 44°34' E 037°58'0 0.0
2017-Oct-13 17:59N 44°34' E 037°58'0 0.0
2017-Oct-13 17:29N 44°34' E 037°58'0 0.0
2017-Oct-13 16:29N 44°34' E 037°58'0 0.0
2017-Oct-13 15:59N 44°34' E 037°58'0 0.0
2017-Oct-13 15:29N 44°34' E 037°58'0 0.0
2017-Oct-13 14:59N 44°34' E 037°58'0 0.0
2017-Oct-13 14:29N 44°34' E 037°58'0 0.0
2017-Oct-13 13:59N 44°34' E 037°57'0 0.1
2017-Oct-13 13:29N 44°34' E 037°57'0 0.0
2017-Oct-13 12:59N 44°34' E 037°57'0 0.0
2017-Oct-13 12:29N 44°34' E 037°58'0 0.0
2017-Oct-13 11:59N 44°34' E 037°57'0 0.0
2017-Oct-13 11:29N 44°34' E 037°57'0 0.0
2017-Oct-13 10:59N 44°34' E 037°57'0 0.0
2017-Oct-13 10:29N 44°34' E 037°57'0 0.0
2017-Oct-13 09:59N 44°34' E 037°57'0 0.1
2017-Oct-13 09:29N 44°34' E 037°57'0 0.0
2017-Oct-13 08:59N 44°34' E 037°57'0 0.0
2017-Oct-13 08:29N 44°34' E 037°57'0 0.0
2017-Oct-13 07:59N 44°34' E 037°57'0 0.0
2017-Oct-13 07:29N 44°34' E 037°57'0 0.0
2017-Oct-13 06:59N 44°34' E 037°57'0 0.0
2017-Oct-13 06:29N 44°34' E 037°57'0 0.0
2017-Oct-13 05:59N 44°34' E 037°57'0 0.0
2017-Oct-13 05:29N 44°34' E 037°57'0 0.1
2017-Oct-13 04:59N 44°34' E 037°57'0 0.0
2017-Oct-13 04:29N 44°34' E 037°57'0 0.0
2017-Oct-13 03:59N 44°34' E 037°57'0 0.2
2017-Oct-13 03:29N 44°34' E 037°57'0 0.2
2017-Oct-13 02:59N 44°34' E 037°57'0 0.0
2017-Oct-13 02:26N 44°34' E 037°57'0 0.1
2017-Oct-13 01:59N 44°34' E 037°57'0 0.1
2017-Oct-13 01:29N 44°34' E 037°57'0 0.0
2017-Oct-13 00:59N 44°34' E 037°57'0 0.0
2017-Oct-13 00:29N 44°34' E 037°57'0 0.1
2017-Oct-12 23:59N 44°34' E 037°57'0 0.0
2017-Oct-12 23:29N 44°34' E 037°57'0 0.1
2017-Oct-12 22:59N 44°34' E 037°57'0 0.0
2017-Oct-12 22:29N 44°34' E 037°57'0 0.0
2017-Oct-12 21:59N 44°34' E 037°57'0 0.0
2017-Oct-12 21:29N 44°34' E 037°57'0 0.0
2017-Oct-12 20:59N 44°34' E 037°57'0 0.0
2017-Oct-12 20:29N 44°34' E 037°57'0 0.1
2017-Oct-12 19:59N 44°34' E 037°58'0 0.0
2017-Oct-12 19:29N 44°34' E 037°57'0 0.1
2017-Oct-12 18:59N 44°34' E 037°58'0 0.0
2017-Oct-12 18:29N 44°34' E 037°58'0 0.1
2017-Oct-12 17:59N 44°34' E 037°58'0 0.0
2017-Oct-12 17:29N 44°34' E 037°58'0 0.0
2017-Oct-12 16:59N 44°34' E 037°58'0 0.0
2017-Oct-12 16:26N 44°34' E 037°58'0 0.0
2017-Oct-12 15:59N 44°34' E 037°58'0 0.0
2017-Oct-12 15:29N 44°34' E 037°58'0 0.0
2017-Oct-12 14:59N 44°34' E 037°58'0 0.0
2017-Oct-12 14:29N 44°34' E 037°58'0 0.1
2017-Oct-12 13:56N 44°34' E 037°58'0 0.1
2017-Oct-12 13:29N 44°34' E 037°58'0 0.0
2017-Oct-12 12:59N 44°34' E 037°58'0 0.0
2017-Oct-12 12:29N 44°34' E 037°58'0 0.0
2017-Oct-12 11:53N 44°34' E 037°58'0 0.0
2017-Oct-12 11:29N 44°34' E 037°58'0 0.0
2017-Oct-12 10:59N 44°34' E 037°58'0 0.0
2017-Oct-12 10:29N 44°34' E 037°58'0 0.0
2017-Oct-12 09:59N 44°34' E 037°58'0 0.0
2017-Oct-12 09:29N 44°34' E 037°58'0 0.0
2017-Oct-12 08:59N 44°34' E 037°58'0 0.0
2017-Oct-12 08:29N 44°34' E 037°58'0 0.0
2017-Oct-12 07:59N 44°34' E 037°58'0 0.1
2017-Oct-12 07:29N 44°34' E 037°58'0 0.1
2017-Oct-12 06:59N 44°34' E 037°58'0 0.1
2017-Oct-12 06:29N 44°34' E 037°57'0 0.1
2017-Oct-12 05:59N 44°34' E 037°58'0 0.1
2017-Oct-12 05:29N 44°34' E 037°58'0 0.0
2017-Oct-12 04:59N 44°34' E 037°58'0 0.1
2017-Oct-12 04:29N 44°34' E 037°58'0 0.2
2017-Oct-12 03:59N 44°34' E 037°57'0 0.2
2017-Oct-12 03:29N 44°34' E 037°57'0 0.1
2017-Oct-12 02:59N 44°34' E 037°57'0 0.0
2017-Oct-12 02:29N 44°34' E 037°57'0 0.0
2017-Oct-12 01:59N 44°34' E 037°57'0 0.0
2017-Oct-12 01:29N 44°34' E 037°57'0 0.0
2017-Oct-12 00:59N 44°34' E 037°57'0 0.0
2017-Oct-12 00:29N 44°34' E 037°57'0 0.0
2017-Oct-11 23:59N 44°34' E 037°57'0 0.1
2017-Oct-11 23:29N 44°34' E 037°57'0 0.0
2017-Oct-11 22:59N 44°34' E 037°57'0 0.0
2017-Oct-11 22:29N 44°34' E 037°57'0 0.0
2017-Oct-11 21:59N 44°34' E 037°57'0 0.0
2017-Oct-11 21:29N 44°34' E 037°57'0 0.0
2017-Oct-11 20:59N 44°34' E 037°57'0 0.0
2017-Oct-11 20:29N 44°34' E 037°57'0 0.0
2017-Oct-11 19:59N 44°34' E 037°57'0 0.0
2017-Oct-11 19:29N 44°34' E 037°57'0 0.0
2017-Oct-11 18:59N 44°34' E 037°57'0 0.0
2017-Oct-11 18:29N 44°34' E 037°57'0 0.1
2017-Oct-11 17:59N 44°34' E 037°58'0 0.2
2017-Oct-11 17:26N 44°34' E 037°58'0 0.3
2017-Oct-11 16:59N 44°34' E 037°58'449 9.0
2017-Oct-09 15:00N 40°60' E 028°60'4 7.4
2017-Oct-09 14:30N 40°56' E 028°58'510.7
2017-Oct-09 14:00N 40°52' E 028°54'3 4.8
2017-Oct-09 13:26N 40°49' E 028°53'0 0.9
2017-Oct-09 12:57N 40°50' E 028°52'4 8.4
2017-Oct-09 12:26N 40°50' E 028°47'230 9.7
2017-Oct-08 12:39N 37°48' E 025°45'1 9.8
2017-Oct-08 12:30N 37°47' E 025°46'5 9.6
2017-Oct-08 12:00N 37°42' E 025°48'4 8.7
2017-Oct-08 11:30N 37°38' E 025°50'4 8.2
2017-Oct-08 11:00N 37°34' E 025°52'4 7.8
2017-Oct-08 10:30N 37°31' E 025°54'4 8.2
2017-Oct-08 10:00N 37°27' E 025°55'  

Dump ship's entire track history